Time;durP1;ratioP1;P1;durP2;ratioP2;P2;SDS_P1;SDS_P2;PMS_P1;PMS_P2;Temp;Humidity;BMP_temperature;BMP_pressure;BME280_temperature;BME280_humidity;BME280_pressure;Samples;Min_cycle;Max_cycle;Signal;HPM_P1;HPM_P2
2024/01/02 00:00:57;;;;;;;;;;;;;;;;;;5135297;28;20008;-40
2024/01/02 00:03:23;;;;;;;;;;;;;;;;;;5135258;28;20065;-41
2024/01/02 00:05:49;;;;;;;;;;;;;;;;;;5135084;27;19923;-41
2024/01/02 00:08:15;;;;;;;;;;;;;;;;;;5134913;28;20474;-41
2024/01/02 00:10:41;;;;;;;;;;;;;;;;;;5134851;28;19960;-40
2024/01/02 00:13:07;;;;;;;;;;;;;;;;;;5135137;28;19946;-41
2024/01/02 00:15:32;;;;;;;;;;;;;;;;;;5134216;27;19979;-44
2024/01/02 00:17:58;;;;;;;;;;;;;;;;;;5135162;28;19929;-40
2024/01/02 00:20:23;;;;;;;;;;;;;;;;;;5134746;28;19971;-42
2024/01/02 00:22:49;;;;;;;;;;;;;;;;;;5135070;28;19931;-41
2024/01/02 00:25:14;;;;;;;;;;;;;;;;;;5134404;28;20022;-41
2024/01/02 00:27:40;;;;;;;;;;;;;;;;;;5134707;28;20294;-40
2024/01/02 00:30:05;;;;;;;;;;;;;;;;;;5134788;28;20339;-40
2024/01/02 00:32:31;;;;;;;;;;;;;;;;;;5134612;28;20014;-39
2024/01/02 00:34:57;;;;;;;;;;;;;;;;;;5134651;28;19928;-40
2024/01/02 00:37:23;;;;;;;;;;;;;;;;;;5134717;28;19944;-41
2024/01/02 00:39:49;;;;;;;;;;;;;;;;;;5134483;28;19923;-40
2024/01/02 00:42:15;;;;;;;;;;;;;;;;;;5134566;28;19949;-40
2024/01/02 00:44:40;;;;;;;;;;;;;;;;;;5134563;28;19930;-41
2024/01/02 00:47:07;;;;;;;;;;;;;;;;;;5134495;28;20013;-40
2024/01/02 00:49:32;;;;;;;;;;;;;;;;;;5134629;28;19966;-39
2024/01/02 00:51:58;;;;;;;;;;;;;;;;;;5134272;28;20010;-40
2024/01/02 00:54:23;;;;;;;;;;;;;;;;;;5133717;28;20339;-43
2024/01/02 00:56:49;;;;;;;;;;;;;;;;;;5134322;28;20003;-41
2024/01/02 00:59:14;;;;;;;;;;;;;;;;;;5134375;28;19923;-40
2024/01/02 01:01:40;;;;;;;;;;;;;;;;;;5134291;28;20275;-40
2024/01/02 01:04:07;;;;;;;;;;;;;;;;;;5134262;28;20017;-41
2024/01/02 01:06:33;;;;;;;;;;;;;;;;;;5133728;27;19927;-42
2024/01/02 01:08:59;;;;;;;;;;;;;;;;;;5133521;28;20030;-41
2024/01/02 01:11:24;;;;;;;;;;;;;;;;;;5133252;28;20018;-41
2024/01/02 01:13:49;;;;;;;;;;;;;;;;;;5133427;28;20010;-40
2024/01/02 01:16:15;;;;;;;;;;;;;;;;;;5133381;28;19923;-41
2024/01/02 01:18:40;;;;;;;;;;;;;;;;;;5133079;28;20072;-42
2024/01/02 01:21:06;;;;;;;;;;;;;;;;;;5133136;28;20006;-41
2024/01/02 01:23:31;;;;;;;;;;;;;;;;;;5133756;28;19923;-41
2024/01/02 01:25:57;;;;;;;;;;;;;;;;;;5132516;27;20018;-41
2024/01/02 01:28:22;;;;;;;;;;;;;;;;;;5132199;28;20355;-41
2024/01/02 01:30:48;;;;;;;;;;;;;;;;;;5133291;28;19987;-42
2024/01/02 01:33:13;;;;;;;;;;;;;;;;;;5133755;28;20341;-43
2024/01/02 01:35:39;;;;;;;;;;;;;;;;;;5133767;28;20020;-40
2024/01/02 01:38:04;;;;;;;;;;;;;;;;;;5133761;28;20022;-41
2024/01/02 01:40:30;;;;;;;;;;;;;;;;;;5133448;28;20206;-41
2024/01/02 01:42:55;;;;;;;;;;;;;;;;;;5133563;28;19972;-40
2024/01/02 01:45:21;;;;;;;;;;;;;;;;;;5133545;28;20359;-42
2024/01/02 01:47:46;;;;;;;;;;;;;;;;;;5133609;28;19970;-44
2024/01/02 01:50:12;;;;;;;;;;;;;;;;;;5133120;28;19930;-42
2024/01/02 01:52:37;;;;;;;;;;;;;;;;;;5133435;28;19923;-43
2024/01/02 01:55:03;;;;;;;;;;;;;;;;;;5132970;28;20435;-41
2024/01/02 01:57:28;;;;;;;;;;;;;;;;;;5133189;28;19984;-41
2024/01/02 01:59:54;;;;;;;;;;;;;;;;;;5133426;28;20447;-41
2024/01/02 02:02:19;;;;;;;;;;;;;;;;;;5133223;28;20280;-41
2024/01/02 02:04:45;;;;;;;;;;;;;;;;;;5133414;28;20018;-40
2024/01/02 02:07:10;;;;;;;;;;;;;;;;;;5132958;28;19923;-40
2024/01/02 02:09:36;;;;;;;;;;;;;;;;;;5132921;28;20450;-41
2024/01/02 02:12:01;;;;;;;;;;;;;;;;;;5133204;28;19992;-42
2024/01/02 02:14:27;;;;;;;;;;;;;;;;;;5133173;28;19923;-40
2024/01/02 02:16:52;;;;;;;;;;;;;;;;;;5132972;28;20010;-41
2024/01/02 02:19:18;;;;;;;;;;;;;;;;;;5132923;28;19971;-40
2024/01/02 02:21:44;;;;;;;;;;;;;;;;;;5133285;28;19930;-43
2024/01/02 02:24:09;;;;;;;;;;;;;;;;;;5132719;28;19927;-43
2024/01/02 02:26:34;;;;;;;;;;;;;;;;;;5133170;28;19967;-41
2024/01/02 02:29:00;;;;;;;;;;;;;;;;;;5132476;28;19931;-41
2024/01/02 02:31:26;;;;;;;;;;;;;;;;;;5132844;28;19923;-41
2024/01/02 02:33:51;;;;;;;;;;;;;;;;;;5132937;28;19970;-43
2024/01/02 02:36:17;;;;;;;;;;;;;;;;;;5132806;27;19971;-41
2024/01/02 02:38:42;;;;;;;;;;;;;;;;;;5134287;27;19996;-43
2024/01/02 02:41:08;;;;;;;;;;;;;;;;;;5136313;28;20386;-41
2024/01/02 02:43:34;;;;;;;;;;;;;;;;;;5136233;28;19924;-41
2024/01/02 02:46:00;;;;;;;;;;;;;;;;;;5136160;27;19971;-42
2024/01/02 02:48:25;;;;;;;;;;;;;;;;;;5136395;28;20413;-41
2024/01/02 02:50:50;;;;;;;;;;;;;;;;;;5136423;28;20389;-44
2024/01/02 02:53:16;;;;;;;;;;;;;;;;;;5136474;28;19927;-44
2024/01/02 02:55:42;;;;;;;;;;;;;;;;;;5136279;27;19938;-44
2024/01/02 02:58:07;;;;;;;;;;;;;;;;;;5136129;28;19955;-39
2024/01/02 03:00:34;;;;;;;;;;;;;;;;;;5136096;28;21215;-41
2024/01/02 03:02:59;;;;;;;;;;;;;;;;;;5136295;27;20018;-39
2024/01/02 03:05:25;;;;;;;;;;;;;;;;;;5136205;28;19971;-43
2024/01/02 03:07:50;;;;;;;;;;;;;;;;;;5135970;28;20065;-41
2024/01/02 03:10:17;;;;;;;;;;;;;;;;;;5136040;28;19985;-45
2024/01/02 03:12:43;;;;;;;;;;;;;;;;;;5135932;27;20291;-42
2024/01/02 03:15:12;;;;;;;;;;;;;;;;;;5135804;28;19927;-41
2024/01/02 03:17:37;;;;;;;;;;;;;;;;;;5135454;27;19972;-43
2024/01/02 03:20:03;;;;;;;;;;;;;;;;;;5135632;28;19923;-40
2024/01/02 03:22:28;;;;;;;;;;;;;;;;;;5135491;28;20010;-41
2024/01/02 03:24:54;;;;;;;;;;;;;;;;;;5135061;28;20028;-40
2024/01/02 03:27:19;;;;;;;;;;;;;;;;;;5135490;28;19930;-42
2024/01/02 03:29:45;;;;;;;;;;;;;;;;;;5135113;28;20026;-43
2024/01/02 03:32:11;;;;;;;;;;;;;;;;;;5135402;27;19923;-40
2024/01/02 03:34:37;;;;;;;;;;;;;;;;;;5135445;28;20017;-41
2024/01/02 03:37:03;;;;;;;;;;;;;;;;;;5135738;27;20004;-41
2024/01/02 03:39:29;;;;;;;;;;;;;;;;;;5135360;27;19930;-41
2024/01/02 03:41:54;;;;;;;;;;;;;;;;;;5135612;28;20022;-40
2024/01/02 03:44:19;;;;;;;;;;;;;;;;;;5135217;28;19978;-43
2024/01/02 03:46:45;;;;;;;;;;;;;;;;;;5135342;28;19992;-43
2024/01/02 03:49:10;;;;;;;;;;;;;;;;;;5135309;27;20014;-44
2024/01/02 03:51:36;;;;;;;;;;;;;;;;;;5134492;28;19937;-41
2024/01/02 03:54:01;;;;;;;;;;;;;;;;;;5135218;28;19923;-43
2024/01/02 03:56:27;;;;;;;;;;;;;;;;;;5135361;28;20013;-41
2024/01/02 03:58:52;;;;;;;;;;;;;;;;;;5134257;28;20006;-40
2024/01/02 04:01:18;;;;;;;;;;;;;;;;;;5134333;28;19929;-40
2024/01/02 04:03:43;;;;;;;;;;;;;;;;;;5134449;28;19954;-43
2024/01/02 04:06:09;;;;;;;;;;;;;;;;;;5134282;28;19958;-42
2024/01/02 04:08:34;;;;;;;;;;;;;;;;;;5134119;28;19924;-41
2024/01/02 04:11:00;;;;;;;;;;;;;;;;;;5134799;28;19959;-40
2024/01/02 04:13:25;;;;;;;;;;;;;;;;;;5134376;28;20315;-41
2024/01/02 04:15:51;;;;;;;;;;;;;;;;;;5134763;28;19931;-43
2024/01/02 04:18:16;;;;;;;;;;;;;;;;;;5135030;28;19947;-40
2024/01/02 04:20:42;;;;;;;;;;;;;;;;;;5135162;28;19930;-41
2024/01/02 04:23:08;;;;;;;;;;;;;;;;;;5135060;28;20018;-43
2024/01/02 04:25:34;;;;;;;;;;;;;;;;;;5135021;27;19924;-43
2024/01/02 04:27:59;;;;;;;;;;;;;;;;;;5134743;28;19969;-41
2024/01/02 04:30:25;;;;;;;;;;;;;;;;;;5134571;28;19970;-42
2024/01/02 04:32:50;;;;;;;;;;;;;;;;;;5133899;28;19931;-40
2024/01/02 04:35:16;;;;;;;;;;;;;;;;;;5134276;28;19924;-42
2024/01/02 04:37:41;;;;;;;;;;;;;;;;;;5134470;28;20010;-40
2024/01/02 04:40:09;;;;;;;;;;;;;;;;;;5134319;28;20024;-41
2024/01/02 04:42:35;;;;;;;;;;;;;;;;;;5133763;28;19928;-43
2024/01/02 04:45:00;;;;;;;;;;;;;;;;;;5133697;28;20367;-41
2024/01/02 04:47:26;;;;;;;;;;;;;;;;;;5134011;28;20014;-41
2024/01/02 04:49:51;;;;;;;;;;;;;;;;;;5133760;28;20030;-43
2024/01/02 04:52:17;;;;;;;;;;;;;;;;;;5133705;28;20030;-42
2024/01/02 04:54:42;;;;;;;;;;;;;;;;;;5133542;28;20010;-39
2024/01/02 04:57:08;;;;;;;;;;;;;;;;;;5133991;28;20379;-40
2024/01/02 04:59:33;;;;;;;;;;;;;;;;;;5133649;28;20349;-41
2024/01/02 05:01:59;;;;;;;;;;;;;;;;;;5133118;27;19924;-43
2024/01/02 05:04:24;;;;;;;;;;;;;;;;;;5133678;28;19962;-42
2024/01/02 05:06:50;;;;;;;;;;;;;;;;;;5133597;28;19923;-40
2024/01/02 05:09:15;;;;;;;;;;;;;;;;;;5132967;28;19992;-41
2024/01/02 05:11:41;;;;;;;;;;;;;;;;;;5133945;28;19923;-41
2024/01/02 05:14:06;;;;;;;;;;;;;;;;;;5133528;28;19927;-41
2024/01/02 05:16:32;;;;;;;;;;;;;;;;;;5133494;28;19934;-41
2024/01/02 05:18:57;;;;;;;;;;;;;;;;;;5133717;28;19930;-40
2024/01/02 05:21:23;;;;;;;;;;;;;;;;;;5133688;27;20000;-40
2024/01/02 05:23:48;;;;;;;;;;;;;;;;;;5134147;28;20014;-42
2024/01/02 05:26:14;;;;;;;;;;;;;;;;;;5134099;28;19923;-41
2024/01/02 05:28:39;;;;;;;;;;;;;;;;;;5133556;28;20018;-44
2024/01/02 05:31:04;;;;;;;;;;;;;;;;;;5133783;28;19970;-41
2024/01/02 05:33:30;;;;;;;;;;;;;;;;;;5133633;28;20006;-41
2024/01/02 05:35:55;;;;;;;;;;;;;;;;;;5133643;27;20328;-41
2024/01/02 05:38:21;;;;;;;;;;;;;;;;;;5133341;28;19958;-43
2024/01/02 05:40:46;;;;;;;;;;;;;;;;;;5132995;28;19969;-39
2024/01/02 05:43:12;;;;;;;;;;;;;;;;;;5133519;28;19954;-42
2024/01/02 05:45:37;;;;;;;;;;;;;;;;;;5133419;28;19923;-43
2024/01/02 05:48:03;;;;;;;;;;;;;;;;;;5133576;28;20045;-44
2024/01/02 05:50:29;;;;;;;;;;;;;;;;;;5133020;28;20397;-42
2024/01/02 05:52:54;;;;;;;;;;;;;;;;;;5133665;27;19923;-42
2024/01/02 05:55:20;;;;;;;;;;;;;;;;;;5133442;28;19970;-42
2024/01/02 05:57:45;;;;;;;;;;;;;;;;;;5133591;28;19927;-41
2024/01/02 06:00:11;;;;;;;;;;;;;;;;;;5132803;28;20002;-40
2024/01/02 06:02:36;;;;;;;;;;;;;;;;;;5132766;28;19962;-42
2024/01/02 06:05:01;;;;;;;;;;;;;;;;;;5133385;28;20014;-42
2024/01/02 06:07:27;;;;;;;;;;;;;;;;;;5133312;28;19947;-43
2024/01/02 06:09:52;;;;;;;;;;;;;;;;;;5132661;28;19931;-42
2024/01/02 06:12:18;;;;;;;;;;;;;;;;;;5131871;27;19978;-42
2024/01/02 06:14:43;;;;;;;;;;;;;;;;;;5127363;28;20380;-42
2024/01/02 06:17:09;;;;;;;;;;;;;;;;;;5112617;28;20295;-43
2024/01/02 06:19:34;;;;;;;;;;;;;;;;;;5112696;28;19963;-40
2024/01/02 06:22:00;;;;;;;;;;;;;;;;;;5112752;28;20346;-42
2024/01/02 06:24:26;;;;;;;;;;;;;;;;;;5112588;28;19930;-42
2024/01/02 06:26:52;;;;;;;;;;;;;;;;;;5112681;28;19924;-42
2024/01/02 06:29:17;;;;;;;;;;;;;;;;;;5117110;28;20401;-42
2024/01/02 06:31:43;;;;;;;;;;;;;;;;;;5132847;28;19923;-41
2024/01/02 06:34:08;;;;;;;;;;;;;;;;;;5132821;27;19924;-40
2024/01/02 06:36:34;;;;;;;;;;;;;;;;;;5132397;28;19962;-40
2024/01/02 06:38:59;;;;;;;;;;;;;;;;;;5132884;28;20015;-41
2024/01/02 06:41:25;;;;;;;;;;;;;;;;;;5132645;28;19970;-42
2024/01/02 06:43:50;;;;;;;;;;;;;;;;;;5132700;28;20027;-40
2024/01/02 06:46:16;;;;;;;;;;;;;;;;;;5130133;28;20491;-42
2024/01/02 06:48:42;;;;;;;;;;;;;;;;;;5132468;28;20329;-44
2024/01/02 06:51:07;;;;;;;;;;;;;;;;;;5132639;28;19972;-44
2024/01/02 06:53:33;;;;;;;;;;;;;;;;;;5132930;28;19963;-44
2024/01/02 06:55:58;;;;;;;;;;;;;;;;;;5132714;28;20017;-40
2024/01/02 06:58:24;;;;;;;;;;;;;;;;;;5132914;28;20056;-40
2024/01/02 07:00:49;;;;;;;;;;;;;;;;;;5132321;28;19967;-42
2024/01/02 07:03:14;;;;;;;;;;;;;;;;;;5132231;28;20359;-43
2024/01/02 07:05:40;;;;;;;;;;;;;;;;;;5132811;28;20017;-44
2024/01/02 07:08:06;;;;;;;;;;;;;;;;;;5132463;28;19927;-39
2024/01/02 07:10:31;;;;;;;;;;;;;;;;;;5132088;28;19927;-40
2024/01/02 07:12:57;;;;;;;;;;;;;;;;;;5132522;28;19962;-41
2024/01/02 07:15:22;;;;;;;;;;;;;;;;;;5132014;28;20019;-41
2024/01/02 07:17:48;;;;;;;;;;;;;;;;;;5132500;28;19978;-44
2024/01/02 07:20:14;;;;;;;;;;;;;;;;;;5132466;28;19923;-40
2024/01/02 07:22:39;;;;;;;;;;;;;;;;;;5132458;28;19923;-43
2024/01/02 07:25:04;;;;;;;;;;;;;;;;;;5132921;27;20002;-40
2024/01/02 07:27:30;;;;;;;;;;;;;;;;;;5135960;28;19924;-41
2024/01/02 07:29:55;;;;;;;;;;;;;;;;;;5121534;28;20369;-43
2024/01/02 07:32:21;;;;;;;;;;;;;;;;;;5131713;28;19923;-42
2024/01/02 07:34:46;;;;;;;;;;;;;;;;;;5135919;28;19924;-44
2024/01/02 07:37:12;;;;;;;;;;;;;;;;;;5135075;28;19979;-40
2024/01/02 07:39:38;;;;;;;;;;;;;;;;;;5135347;28;19949;-42
2024/01/02 07:42:03;;;;;;;;;;;;;;;;;;5135642;28;19955;-41
2024/01/02 07:44:28;;;;;;;;;;;;;;;;;;5135455;28;20022;-39
2024/01/02 07:46:54;;;;;;;;;;;;;;;;;;5135340;28;19923;-40
2024/01/02 07:49:19;;;;;;;;;;;;;;;;;;5135480;28;19971;-42
2024/01/02 07:51:45;;;;;;;;;;;;;;;;;;5135308;28;19930;-41
2024/01/02 07:54:10;;;;;;;;;;;;;;;;;;5135527;28;19923;-41
2024/01/02 07:56:36;;;;;;;;;;;;;;;;;;5135264;28;19927;-41
2024/01/02 07:59:02;;;;;;;;;;;;;;;;;;5135419;28;19930;-41
2024/01/02 08:01:28;;;;;;;;;;;;;;;;;;5135038;28;20389;-40
2024/01/02 08:03:53;;;;;;;;;;;;;;;;;;5135384;28;20014;-40
2024/01/02 08:06:18;;;;;;;;;;;;;;;;;;5134939;28;20407;-41
2024/01/02 08:08:44;;;;;;;;;;;;;;;;;;5135335;28;19966;-41
2024/01/02 08:11:09;;;;;;;;;;;;;;;;;;5134652;28;19924;-41
2024/01/02 08:13:35;;;;;;;;;;;;;;;;;;5133965;28;19976;-39
2024/01/02 08:16:03;;;;;;;;;;;;;;;;;;5128019;28;19924;-39
2024/01/02 08:18:29;;;;;;;;;;;;;;;;;;5114009;28;20363;-41
2024/01/02 08:20:54;;;;;;;;;;;;;;;;;;5113868;28;19923;-40
2024/01/02 08:23:20;;;;;;;;;;;;;;;;;;5114121;28;19963;-40
2024/01/02 08:25:45;;;;;;;;;;;;;;;;;;5113561;28;20002;-41
2024/01/02 08:28:11;;;;;;;;;;;;;;;;;;5113814;28;19933;-40
2024/01/02 08:30:36;;;;;;;;;;;;;;;;;;5113727;28;20391;-40
2024/01/02 08:33:02;;;;;;;;;;;;;;;;;;5124627;28;19965;-40
2024/01/02 08:35:27;;;;;;;;;;;;;;;;;;5134395;27;19923;-42
2024/01/02 08:37:53;;;;;;;;;;;;;;;;;;5133737;28;19967;-40
2024/01/02 08:40:18;;;;;;;;;;;;;;;;;;5134009;28;20014;-41
2024/01/02 08:42:44;;;;;;;;;;;;;;;;;;5134544;28;19928;-41
2024/01/02 08:45:10;;;;;;;;;;;;;;;;;;5134273;28;19924;-43
2024/01/02 08:47:38;;;;;;;;;;;;;;;;;;5134558;28;20067;-41
2024/01/02 08:50:03;;;;;;;;;;;;;;;;;;5134515;28;19924;-40
2024/01/02 08:52:29;;;;;;;;;;;;;;;;;;5134271;28;19955;-41
2024/01/02 08:54:54;;;;;;;;;;;;;;;;;;5134213;28;19967;-40
2024/01/02 08:57:21;;;;;;;;;;;;;;;;;;5133844;28;19923;-39
2024/01/02 08:59:46;;;;;;;;;;;;;;;;;;5134078;28;20344;-39
2024/01/02 09:02:12;;;;;;;;;;;;;;;;;;5133951;28;19946;-44
2024/01/02 09:04:37;;;;;;;;;;;;;;;;;;5133943;28;19973;-40
2024/01/02 09:07:03;;;;;;;;;;;;;;;;;;5133729;28;19923;-41
2024/01/02 09:09:28;;;;;;;;;;;;;;;;;;5134034;28;19923;-41
2024/01/02 09:11:54;;;;;;;;;;;;;;;;;;5133552;28;19924;-41
2024/01/02 09:14:19;;;;;;;;;;;;;;;;;;5134067;28;19966;-41
2024/01/02 09:16:45;;;;;;;;;;;;;;;;;;5133362;28;20306;-42
2024/01/02 09:19:10;;;;;;;;;;;;;;;;;;5134067;28;20251;-41
2024/01/02 09:21:37;;;;;;;;;;;;;;;;;;5134109;28;19974;-41
2024/01/02 09:24:03;;;;;;;;;;;;;;;;;;5134084;28;19966;-40
2024/01/02 09:26:28;;;;;;;;;;;;;;;;;;5133561;28;19974;-41
2024/01/02 09:28:53;;;;;;;;;;;;;;;;;;5134077;28;20014;-43
2024/01/02 09:31:19;;;;;;;;;;;;;;;;;;5133382;28;19934;-41
2024/01/02 09:33:44;;;;;;;;;;;;;;;;;;5134069;28;19924;-40
2024/01/02 09:36:10;;;;;;;;;;;;;;;;;;5133335;28;20014;-41
2024/01/02 09:38:35;;;;;;;;;;;;;;;;;;5133808;28;19934;-41
2024/01/02 09:41:01;;;;;;;;;;;;;;;;;;5133062;28;20014;-39
2024/01/02 09:43:26;;;;;;;;;;;;;;;;;;5133386;28;19984;-40
2024/01/02 09:45:52;;;;;;;;;;;;;;;;;;5133114;28;19962;-43
2024/01/02 09:48:18;;;;;;;;;;;;;;;;;;5131695;27;20414;-40
2024/01/02 09:50:44;;;;;;;;;;;;;;;;;;5133369;28;19924;-39
2024/01/02 09:53:09;;;;;;;;;;;;;;;;;;5133367;28;20013;-39
2024/01/02 09:55:35;;;;;;;;;;;;;;;;;;5133522;28;19969;-40
2024/01/02 09:58:01;;;;;;;;;;;;;;;;;;5133484;28;19923;-41
2024/01/02 10:00:26;;;;;;;;;;;;;;;;;;5133453;28;20365;-41
2024/01/02 10:02:52;;;;;;;;;;;;;;;;;;5133594;28;20015;-41
2024/01/02 10:05:17;;;;;;;;;;;;;;;;;;5133574;28;19923;-40
2024/01/02 10:07:44;;;;;;;;;;;;;;;;;;5133464;28;20355;-41
2024/01/02 10:10:10;;;;;;;;;;;;;;;;;;5132172;28;19924;-41
2024/01/02 10:12:35;;;;;;;;;;;;;;;;;;5132155;28;20414;-40
2024/01/02 10:15:01;;;;;;;;;;;;;;;;;;5132703;28;20424;-40
2024/01/02 10:17:26;;;;;;;;;;;;;;;;;;5133168;28;19946;-39
2024/01/02 10:19:52;;;;;;;;;;;;;;;;;;5132739;28;20282;-40
2024/01/02 10:22:17;;;;;;;;;;;;;;;;;;5133124;28;19966;-41
2024/01/02 10:24:42;;;;;;;;;;;;;;;;;;5133282;28;19970;-40
2024/01/02 10:27:09;;;;;;;;;;;;;;;;;;5133084;28;19924;-40
2024/01/02 10:29:35;;;;;;;;;;;;;;;;;;5133264;28;20293;-40
2024/01/02 10:32:03;;;;;;;;;;;;;;;;;;5132452;27;19923;-40
2024/01/02 10:34:29;;;;;;;;;;;;;;;;;;5133155;27;20371;-40
2024/01/02 10:36:54;;;;;;;;;;;;;;;;;;5130794;27;19973;-39
2024/01/02 10:39:20;;;;;;;;;;;;;;;;;;5132285;28;19970;-39
2024/01/02 10:41:45;;;;;;;;;;;;;;;;;;5132826;28;19931;-40
2024/01/02 10:44:11;;;;;;;;;;;;;;;;;;5132368;28;19924;-42
2024/01/02 10:46:36;;;;;;;;;;;;;;;;;;5132471;28;20394;-40
2024/01/02 10:49:02;;;;;;;;;;;;;;;;;;5132934;28;19977;-40
2024/01/02 10:51:27;;;;;;;;;;;;;;;;;;5132183;28;20002;-43
2024/01/02 10:53:54;;;;;;;;;;;;;;;;;;5132592;28;20419;-41
2024/01/02 10:56:19;;;;;;;;;;;;;;;;;;5132258;28;19930;-40
2024/01/02 10:58:45;;;;;;;;;;;;;;;;;;5132367;27;19923;-39
2024/01/02 11:01:12;;;;;;;;;;;;;;;;;;5134478;28;20043;-39
2024/01/02 11:03:37;;;;;;;;;;;;;;;;;;5135205;28;20012;-40
2024/01/02 11:06:04;;;;;;;;;;;;;;;;;;5135927;28;19962;-40
2024/01/02 11:08:29;;;;;;;;;;;;;;;;;;5135832;28;19927;-41
2024/01/02 11:10:55;;;;;;;;;;;;;;;;;;5135507;28;19993;-39
2024/01/02 11:13:20;;;;;;;;;;;;;;;;;;5135864;28;19923;-42
2024/01/02 11:15:46;;;;;;;;;;;;;;;;;;5135478;28;19923;-41
2024/01/02 11:18:11;;;;;;;;;;;;;;;;;;5135635;28;19959;-41
2024/01/02 11:20:37;;;;;;;;;;;;;;;;;;5134953;28;19927;-42
2024/01/02 11:23:03;;;;;;;;;;;;;;;;;;5132188;28;19924;-40
2024/01/02 11:25:29;;;;;;;;;;;;;;;;;;5133922;28;19947;-40
2024/01/02 11:28:04;;;;;;;;;;;;;;;;;;5133627;28;19968;-40
2024/01/02 11:30:29;;;;;;;;;;;;;;;;;;5133694;28;20355;-41
2024/01/02 11:32:55;;;;;;;;;;;;;;;;;;5135330;28;19924;-41
2024/01/02 11:35:21;;;;;;;;;;;;;;;;;;5135825;27;20042;-39
2024/01/02 11:37:46;;;;;;;;;;;;;;;;;;5135513;28;19927;-40
2024/01/02 11:40:12;;;;;;;;;;;;;;;;;;5135265;28;19976;-40
2024/01/02 11:42:37;;;;;;;;;;;;;;;;;;5135040;28;19931;-42
2024/01/02 11:45:04;;;;;;;;;;;;;;;;;;5134274;28;19949;-41
2024/01/02 11:47:29;;;;;;;;;;;;;;;;;;5134284;28;20052;-39
2024/01/02 11:49:55;;;;;;;;;;;;;;;;;;5123966;28;20447;-39
2024/01/02 11:52:20;;;;;;;;;;;;;;;;;;5114238;28;19989;-41
2024/01/02 11:54:46;;;;;;;;;;;;;;;;;;5114324;28;19924;-42
2024/01/02 11:57:11;;;;;;;;;;;;;;;;;;5114280;28;19932;-41
2024/01/02 11:59:38;;;;;;;;;;;;;;;;;;5114443;28;19924;-42
2024/01/02 12:02:04;;;;;;;;;;;;;;;;;;5114401;28;19950;-39
2024/01/02 12:04:30;;;;;;;;;;;;;;;;;;5114702;28;20436;-40
2024/01/02 12:06:56;;;;;;;;;;;;;;;;;;5114390;28;19923;-40
2024/01/02 12:09:22;;;;;;;;;;;;;;;;;;5114697;28;19928;-43
2024/01/02 12:11:47;;;;;;;;;;;;;;;;;;5113763;28;20013;-41
2024/01/02 12:14:13;;;;;;;;;;;;;;;;;;5114462;28;19924;-41
2024/01/02 12:16:38;;;;;;;;;;;;;;;;;;5113811;28;20003;-41
2024/01/02 12:19:04;;;;;;;;;;;;;;;;;;5113854;28;19924;-40
2024/01/02 12:21:30;;;;;;;;;;;;;;;;;;5114537;28;20383;-39
2024/01/02 12:23:55;;;;;;;;;;;;;;;;;;5119936;28;19930;-39
2024/01/02 12:26:21;;;;;;;;;;;;;;;;;;5114206;28;19930;-42
2024/01/02 12:28:47;;;;;;;;;;;;;;;;;;5114459;28;20410;-42
2024/01/02 12:31:13;;;;;;;;;;;;;;;;;;5114248;28;19968;-40
2024/01/02 12:33:41;;;;;;;;;;;;;;;;;;5117326;28;19929;-42
2024/01/02 12:36:07;;;;;;;;;;;;;;;;;;5134738;28;19931;-40
2024/01/02 12:38:32;;;;;;;;;;;;;;;;;;5134684;28;20304;-40
2024/01/02 12:40:57;;;;;;;;;;;;;;;;;;5134077;28;19977;-39
2024/01/02 12:43:25;;;;;;;;;;;;;;;;;;5134654;28;20371;-42
2024/01/02 12:45:50;;;;;;;;;;;;;;;;;;5133856;27;19923;-40
2024/01/02 12:48:16;;;;;;;;;;;;;;;;;;5134515;28;20014;-41
2024/01/02 12:50:44;;;;;;;;;;;;;;;;;;5134524;28;19974;-40
2024/01/02 12:53:09;;;;;;;;;;;;;;;;;;5134334;27;19927;-43
2024/01/02 12:55:36;;;;;;;;;;;;;;;;;;5134353;28;19977;-41
2024/01/02 12:58:02;;;;;;;;;;;;;;;;;;5134457;27;19927;-41
2024/01/02 13:00:27;;;;;;;;;;;;;;;;;;5134332;28;20380;-42
2024/01/02 13:02:53;;;;;;;;;;;;;;;;;;5134472;28;19923;-41
2024/01/02 13:05:18;;;;;;;;;;;;;;;;;;5134621;28;19924;-40
2024/01/02 13:07:44;;;;;;;;;;;;;;;;;;5134398;28;19981;-42
2024/01/02 13:10:09;;;;;;;;;;;;;;;;;;5134201;28;20019;-40
2024/01/02 13:12:35;;;;;;;;;;;;;;;;;;5134243;28;20423;-41
2024/01/02 13:15:04;;;;;;;;;;;;;;;;;;5133611;28;19931;-40
2024/01/02 13:17:30;;;;;;;;;;;;;;;;;;5134030;27;19924;-39
2024/01/02 13:19:56;;;;;;;;;;;;;;;;;;5132639;27;20426;-39
2024/01/02 13:22:22;;;;;;;;;;;;;;;;;;5133817;27;20008;-40
2024/01/02 13:24:48;;;;;;;;;;;;;;;;;;5134084;28;19970;-41
2024/01/02 13:27:15;;;;;;;;;;;;;;;;;;5133321;28;19923;-42
2024/01/02 13:29:40;;;;;;;;;;;;;;;;;;5134049;28;19928;-41
2024/01/02 13:32:06;;;;;;;;;;;;;;;;;;5133672;28;20105;-40
2024/01/02 13:34:31;;;;;;;;;;;;;;;;;;5113213;28;19959;-41
2024/01/02 13:36:57;;;;;;;;;;;;;;;;;;5128540;28;20124;-40
2024/01/02 13:39:22;;;;;;;;;;;;;;;;;;5129831;28;20374;-39
2024/01/02 13:41:48;;;;;;;;;;;;;;;;;;5132795;28;20035;-40
2024/01/02 13:44:13;;;;;;;;;;;;;;;;;;5128660;28;19969;-41
2024/01/02 13:46:40;;;;;;;;;;;;;;;;;;5132474;28;19966;-40
2024/01/02 13:49:05;;;;;;;;;;;;;;;;;;5131712;28;19924;-42
2024/01/02 13:51:32;;;;;;;;;;;;;;;;;;5132069;28;22561;-45
2024/01/02 13:53:58;;;;;;;;;;;;;;;;;;5128966;28;19928;-41
2024/01/02 13:56:24;;;;;;;;;;;;;;;;;;5133455;28;19930;-42
2024/01/02 13:58:49;;;;;;;;;;;;;;;;;;5127955;28;19924;-42
2024/01/02 14:01:15;;;;;;;;;;;;;;;;;;5112898;28;20014;-41
2024/01/02 14:03:40;;;;;;;;;;;;;;;;;;5130471;28;19972;-39
2024/01/02 14:06:06;;;;;;;;;;;;;;;;;;5133551;28;20014;-42
2024/01/02 14:08:31;;;;;;;;;;;;;;;;;;5132878;28;19965;-39
2024/01/02 14:11:00;;;;;;;;;;;;;;;;;;5132055;28;19931;-41
2024/01/02 14:13:26;;;;;;;;;;;;;;;;;;5131472;28;19924;-42
2024/01/02 14:15:51;;;;;;;;;;;;;;;;;;5132428;28;20011;-41
2024/01/02 14:18:17;;;;;;;;;;;;;;;;;;5133027;28;19974;-42
2024/01/02 14:20:43;;;;;;;;;;;;;;;;;;5133147;28;19980;-39
2024/01/02 14:23:09;;;;;;;;;;;;;;;;;;5132519;28;19975;-41
2024/01/02 14:25:34;;;;;;;;;;;;;;;;;;5133227;28;20022;-40
2024/01/02 14:28:00;;;;;;;;;;;;;;;;;;5133007;28;20286;-42
2024/01/02 14:30:25;;;;;;;;;;;;;;;;;;5133111;28;19965;-41
2024/01/02 14:32:51;;;;;;;;;;;;;;;;;;5133275;28;19976;-41
2024/01/02 14:35:18;;;;;;;;;;;;;;;;;;5134347;27;19931;-41
2024/01/02 14:37:43;;;;;;;;;;;;;;;;;;5136188;28;19923;-40
2024/01/02 14:40:09;;;;;;;;;;;;;;;;;;5136633;28;19981;-40
2024/01/02 14:42:35;;;;;;;;;;;;;;;;;;5136636;28;19966;-41
2024/01/02 14:45:01;;;;;;;;;;;;;;;;;;5134042;27;20016;-43
2024/01/02 14:47:26;;;;;;;;;;;;;;;;;;5135877;28;20006;-41
2024/01/02 14:49:52;;;;;;;;;;;;;;;;;;5132333;28;19923;-40
2024/01/02 14:52:18;;;;;;;;;;;;;;;;;;5135144;28;20462;-42
2024/01/02 14:54:45;;;;;;;;;;;;;;;;;;5135200;28;19928;-42
2024/01/02 14:57:10;;;;;;;;;;;;;;;;;;5136329;28;19962;-44
2024/01/02 14:59:35;;;;;;;;;;;;;;;;;;5135227;28;19955;-40
2024/01/02 15:02:01;;;;;;;;;;;;;;;;;;5134666;28;20323;-41
2024/01/02 15:04:26;;;;;;;;;;;;;;;;;;5136405;28;19923;-41
2024/01/02 15:06:52;;;;;;;;;;;;;;;;;;5131663;28;20010;-39
2024/01/02 15:09:17;;;;;;;;;;;;;;;;;;5135723;28;19928;-41
2024/01/02 15:11:43;;;;;;;;;;;;;;;;;;5135450;28;19976;-42
2024/01/02 15:14:08;;;;;;;;;;;;;;;;;;5135633;28;20052;-41
2024/01/02 15:16:34;;;;;;;;;;;;;;;;;;5134967;28;20378;-42
2024/01/02 15:18:59;;;;;;;;;;;;;;;;;;5134618;28;19968;-41
2024/01/02 15:21:24;;;;;;;;;;;;;;;;;;5116779;28;19971;-41
2024/01/02 15:23:50;;;;;;;;;;;;;;;;;;5131391;28;19962;-40
2024/01/02 15:26:15;;;;;;;;;;;;;;;;;;5135013;28;20056;-42
2024/01/02 15:28:41;;;;;;;;;;;;;;;;;;5135500;28;19958;-39
2024/01/02 15:31:06;;;;;;;;;;;;;;;;;;5135054;28;20327;-40
2024/01/02 15:33:32;;;;;;;;;;;;;;;;;;5134537;28;19923;-40
2024/01/02 15:35:58;;;;;;;;;;;;;;;;;;5134697;27;19980;-40
2024/01/02 15:38:33;;;;;;;;;;;;;;;;;;5135088;28;19930;-42
2024/01/02 15:40:59;;;;;;;;;;;;;;;;;;5134158;28;20018;-40
2024/01/02 15:43:25;;;;;;;;;;;;;;;;;;5135605;28;19923;-41
2024/01/02 15:45:51;;;;;;;;;;;;;;;;;;5133858;27;19931;-41
2024/01/02 15:48:17;;;;;;;;;;;;;;;;;;5135173;28;19927;-40
2024/01/02 15:50:43;;;;;;;;;;;;;;;;;;5135423;28;20279;-41
2024/01/02 15:53:08;;;;;;;;;;;;;;;;;;5134312;28;20370;-41
2024/01/02 15:55:34;;;;;;;;;;;;;;;;;;5135406;28;19945;-40
2024/01/02 15:57:59;;;;;;;;;;;;;;;;;;5135295;28;19924;-42
2024/01/02 16:00:25;;;;;;;;;;;;;;;;;;5134855;28;19927;-41
2024/01/02 16:02:50;;;;;;;;;;;;;;;;;;5135263;28;19931;-42
2024/01/02 16:05:16;;;;;;;;;;;;;;;;;;5135299;28;20013;-41
2024/01/02 16:07:41;;;;;;;;;;;;;;;;;;5131883;28;20375;-40
2024/01/02 16:10:07;;;;;;;;;;;;;;;;;;5135262;27;19923;-39
2024/01/02 16:12:32;;;;;;;;;;;;;;;;;;5134584;28;20446;-42
2024/01/02 16:14:58;;;;;;;;;;;;;;;;;;5134467;28;19931;-41
2024/01/02 16:17:24;;;;;;;;;;;;;;;;;;5134195;28;20319;-43
2024/01/02 16:19:50;;;;;;;;;;;;;;;;;;5134922;28;19977;-40
2024/01/02 16:22:15;;;;;;;;;;;;;;;;;;5134749;28;19923;-40
2024/01/02 16:24:41;;;;;;;;;;;;;;;;;;5122267;28;19923;-42
2024/01/02 16:27:06;;;;;;;;;;;;;;;;;;5115651;28;20052;-40
2024/01/02 16:29:32;;;;;;;;;;;;;;;;;;5134911;28;20355;-42
2024/01/02 16:31:57;;;;;;;;;;;;;;;;;;5134427;28;19927;-41
2024/01/02 16:34:23;;;;;;;;;;;;;;;;;;5134567;28;20008;-41